sensor_id;sensor_type;location;lat;lon;timestamp;temperature;humidity
27026;DHT22;14565;48.626;8.978;2022-09-23T00:00:47;5.80;99.90
27026;DHT22;14565;48.626;8.978;2022-09-23T00:03:14;5.80;99.90
27026;DHT22;14565;48.626;8.978;2022-09-23T00:05:57;5.80;99.90
27026;DHT22;14565;48.626;8.978;2022-09-23T00:08:23;5.80;99.90
27026;DHT22;14565;48.626;8.978;2022-09-23T00:10:48;5.90;99.90
27026;DHT22;14565;48.626;8.978;2022-09-23T00:13:15;5.80;99.90
27026;DHT22;14565;48.626;8.978;2022-09-23T00:15:40;5.70;99.90
27026;DHT22;14565;48.626;8.978;2022-09-23T00:18:06;5.70;99.90
27026;DHT22;14565;48.626;8.978;2022-09-23T00:20:33;5.60;99.90
27026;DHT22;14565;48.626;8.978;2022-09-23T00:22:59;5.50;99.90
27026;DHT22;14565;48.626;8.978;2022-09-23T00:25:25;5.60;99.90
27026;DHT22;14565;48.626;8.978;2022-09-23T00:27:54;5.60;99.90
27026;DHT22;14565;48.626;8.978;2022-09-23T00:30:20;5.70;99.90
27026;DHT22;14565;48.626;8.978;2022-09-23T00:32:47;5.70;99.90
27026;DHT22;14565;48.626;8.978;2022-09-23T00:35:13;5.60;99.90
27026;DHT22;14565;48.626;8.978;2022-09-23T00:37:39;5.60;99.90
27026;DHT22;14565;48.626;8.978;2022-09-23T00:40:05;5.50;99.90
27026;DHT22;14565;48.626;8.978;2022-09-23T00:42:33;5.50;99.90
27026;DHT22;14565;48.626;8.978;2022-09-23T00:44:59;5.70;99.90
27026;DHT22;14565;48.626;8.978;2022-09-23T00:47:31;5.50;99.90
27026;DHT22;14565;48.626;8.978;2022-09-23T00:52:42;5.60;99.90
27026;DHT22;14565;48.626;8.978;2022-09-23T00:55:13;5.50;99.90
27026;DHT22;14565;48.626;8.978;2022-09-23T00:57:41;5.50;99.90
27026;DHT22;14565;48.626;8.978;2022-09-23T01:00:08;5.60;99.90
27026;DHT22;14565;48.626;8.978;2022-09-23T01:02:34;5.50;99.90
27026;DHT22;14565;48.626;8.978;2022-09-23T01:05:04;5.60;99.90
27026;DHT22;14565;48.626;8.978;2022-09-23T01:07:30;5.50;99.90
27026;DHT22;14565;48.626;8.978;2022-09-23T01:09:57;5.50;99.90
27026;DHT22;14565;48.626;8.978;2022-09-23T01:15:14;5.50;99.90
27026;DHT22;14565;48.626;8.978;2022-09-23T01:18:08;5.40;99.90
27026;DHT22;14565;48.626;8.978;2022-09-23T01:34:13;5.20;99.90
27026;DHT22;14565;48.626;8.978;2022-09-23T01:36:54;5.10;99.90
27026;DHT22;14565;48.626;8.978;2022-09-23T01:39:39;5.10;99.90
27026;DHT22;14565;48.626;8.978;2022-09-23T01:42:16;5.10;99.90
27026;DHT22;14565;48.626;8.978;2022-09-23T01:45:01;5.10;99.90
27026;DHT22;14565;48.626;8.978;2022-09-23T01:47:34;5.10;99.90
27026;DHT22;14565;48.626;8.978;2022-09-23T01:50:13;5.20;99.90
27026;DHT22;14565;48.626;8.978;2022-09-23T01:53:03;5.00;99.90
27026;DHT22;14565;48.626;8.978;2022-09-23T01:55:33;5.00;99.90
27026;DHT22;14565;48.626;8.978;2022-09-23T01:58:11;4.80;99.90
27026;DHT22;14565;48.626;8.978;2022-09-23T02:00:43;4.90;99.90
27026;DHT22;14565;48.626;8.978;2022-09-23T02:03:20;5.00;99.90
27026;DHT22;14565;48.626;8.978;2022-09-23T02:05:55;4.90;99.90
27026;DHT22;14565;48.626;8.978;2022-09-23T02:08:43;4.90;99.90
27026;DHT22;14565;48.626;8.978;2022-09-23T02:11:12;4.80;99.90
27026;DHT22;14565;48.626;8.978;2022-09-23T02:16:30;4.80;99.90
27026;DHT22;14565;48.626;8.978;2022-09-23T02:19:01;4.70;99.90
27026;DHT22;14565;48.626;8.978;2022-09-23T02:21:33;4.80;99.90
27026;DHT22;14565;48.626;8.978;2022-09-23T02:24:26;4.70;99.90
27026;DHT22;14565;48.626;8.978;2022-09-23T02:26:58;4.80;99.90
27026;DHT22;14565;48.626;8.978;2022-09-23T02:29:32;4.80;99.90
27026;DHT22;14565;48.626;8.978;2022-09-23T02:35:25;4.60;99.90
27026;DHT22;14565;48.626;8.978;2022-09-23T02:37:59;4.60;99.90
27026;DHT22;14565;48.626;8.978;2022-09-23T02:45:32;4.60;99.90
27026;DHT22;14565;48.626;8.978;2022-09-23T02:48:07;4.50;99.90
27026;DHT22;14565;48.626;8.978;2022-09-23T02:50:34;4.50;99.90
27026;DHT22;14565;48.626;8.978;2022-09-23T02:53:01;4.40;99.90
27026;DHT22;14565;48.626;8.978;2022-09-23T02:55:30;4.50;99.90
27026;DHT22;14565;48.626;8.978;2022-09-23T02:58:01;4.60;99.90
27026;DHT22;14565;48.626;8.978;2022-09-23T03:05:51;4.70;99.90
27026;DHT22;14565;48.626;8.978;2022-09-23T03:08:22;4.70;99.90
27026;DHT22;14565;48.626;8.978;2022-09-23T03:17:00;4.60;99.90
27026;DHT22;14565;48.626;8.978;2022-09-23T03:19:29;4.50;99.90
27026;DHT22;14565;48.626;8.978;2022-09-23T03:22:22;4.50;99.90
27026;DHT22;14565;48.626;8.978;2022-09-23T03:24:50;4.50;99.90
27026;DHT22;14565;48.626;8.978;2022-09-23T03:27:19;4.50;99.90
27026;DHT22;14565;48.626;8.978;2022-09-23T03:29:48;4.60;99.90
27026;DHT22;14565;48.626;8.978;2022-09-23T03:32:17;4.50;99.90
27026;DHT22;14565;48.626;8.978;2022-09-23T03:34:47;4.50;99.90
27026;DHT22;14565;48.626;8.978;2022-09-23T03:37:20;4.50;99.90
27026;DHT22;14565;48.626;8.978;2022-09-23T03:42:29;4.40;99.90
27026;DHT22;14565;48.626;8.978;2022-09-23T03:44:56;4.40;99.90
27026;DHT22;14565;48.626;8.978;2022-09-23T03:47:24;4.30;99.90
27026;DHT22;14565;48.626;8.978;2022-09-23T03:49:51;4.20;99.90
27026;DHT22;14565;48.626;8.978;2022-09-23T03:52:20;4.20;99.90
27026;DHT22;14565;48.626;8.978;2022-09-23T03:54:46;4.10;99.90
27026;DHT22;14565;48.626;8.978;2022-09-23T03:57:12;4.10;99.90
27026;DHT22;14565;48.626;8.978;2022-09-23T03:59:38;4.10;99.90
27026;DHT22;14565;48.626;8.978;2022-09-23T04:02:05;4.10;99.90
27026;DHT22;14565;48.626;8.978;2022-09-23T04:04:34;4.00;99.90
27026;DHT22;14565;48.626;8.978;2022-09-23T04:07:00;4.00;99.90
27026;DHT22;14565;48.626;8.978;2022-09-23T04:09:26;4.40;99.90
27026;DHT22;14565;48.626;8.978;2022-09-23T04:11:52;4.50;99.90
27026;DHT22;14565;48.626;8.978;2022-09-23T04:14:18;4.40;99.90
27026;DHT22;14565;48.626;8.978;2022-09-23T04:16:45;4.30;99.90
27026;DHT22;14565;48.626;8.978;2022-09-23T04:19:12;4.10;99.90
27026;DHT22;14565;48.626;8.978;2022-09-23T04:21:39;4.20;99.90
27026;DHT22;14565;48.626;8.978;2022-09-23T04:24:05;4.20;99.90
27026;DHT22;14565;48.626;8.978;2022-09-23T04:26:31;4.60;99.90
27026;DHT22;14565;48.626;8.978;2022-09-23T04:28:57;4.60;99.90
27026;DHT22;14565;48.626;8.978;2022-09-23T04:31:23;4.90;99.90
27026;DHT22;14565;48.626;8.978;2022-09-23T04:33:49;4.80;99.90
27026;DHT22;14565;48.626;8.978;2022-09-23T04:36:16;4.80;99.90
27026;DHT22;14565;48.626;8.978;2022-09-23T04:38:43;5.00;99.90
27026;DHT22;14565;48.626;8.978;2022-09-23T04:41:09;5.00;99.90
27026;DHT22;14565;48.626;8.978;2022-09-23T04:43:35;5.20;99.90
27026;DHT22;14565;48.626;8.978;2022-09-23T04:46:06;5.20;99.90
27026;DHT22;14565;48.626;8.978;2022-09-23T04:48:34;5.30;99.90
27026;DHT22;14565;48.626;8.978;2022-09-23T04:51:12;5.30;99.90
27026;DHT22;14565;48.626;8.978;2022-09-23T04:53:39;5.00;99.90
27026;DHT22;14565;48.626;8.978;2022-09-23T04:56:17;4.80;99.90
27026;DHT22;14565;48.626;8.978;2022-09-23T04:58:43;5.00;99.90
27026;DHT22;14565;48.626;8.978;2022-09-23T05:03:48;5.00;99.90
27026;DHT22;14565;48.626;8.978;2022-09-23T05:06:14;5.10;99.90
27026;DHT22;14565;48.626;8.978;2022-09-23T05:08:45;5.10;99.90
27026;DHT22;14565;48.626;8.978;2022-09-23T05:11:10;5.10;99.90
27026;DHT22;14565;48.626;8.978;2022-09-23T05:13:36;5.40;99.90
27026;DHT22;14565;48.626;8.978;2022-09-23T05:16:04;5.40;99.90
27026;DHT22;14565;48.626;8.978;2022-09-23T05:18:31;5.60;99.90
27026;DHT22;14565;48.626;8.978;2022-09-23T05:20:57;5.70;99.90
27026;DHT22;14565;48.626;8.978;2022-09-23T05:23:23;5.70;99.90
27026;DHT22;14565;48.626;8.978;2022-09-23T05:25:55;5.80;99.90
27026;DHT22;14565;48.626;8.978;2022-09-23T05:28:22;5.80;99.90
27026;DHT22;14565;48.626;8.978;2022-09-23T05:30:47;5.80;99.90
27026;DHT22;14565;48.626;8.978;2022-09-23T05:33:13;5.80;99.90
27026;DHT22;14565;48.626;8.978;2022-09-23T05:35:38;5.90;99.90
27026;DHT22;14565;48.626;8.978;2022-09-23T05:38:10;5.80;99.90
27026;DHT22;14565;48.626;8.978;2022-09-23T05:40:36;5.80;99.90
27026;DHT22;14565;48.626;8.978;2022-09-23T05:43:02;5.80;99.90
27026;DHT22;14565;48.626;8.978;2022-09-23T05:45:27;5.70;99.90
27026;DHT22;14565;48.626;8.978;2022-09-23T05:47:54;5.80;99.90
27026;DHT22;14565;48.626;8.978;2022-09-23T05:50:19;5.80;99.90
27026;DHT22;14565;48.626;8.978;2022-09-23T05:52:45;5.80;99.90
27026;DHT22;14565;48.626;8.978;2022-09-23T05:55:10;5.80;99.90
27026;DHT22;14565;48.626;8.978;2022-09-23T05:57:36;6.00;99.90
27026;DHT22;14565;48.626;8.978;2022-09-23T06:00:02;6.20;99.90
27026;DHT22;14565;48.626;8.978;2022-09-23T06:02:28;6.10;99.90
27026;DHT22;14565;48.626;8.978;2022-09-23T06:04:54;6.30;99.90
27026;DHT22;14565;48.626;8.978;2022-09-23T06:07:19;6.30;99.90
27026;DHT22;14565;48.626;8.978;2022-09-23T06:09:45;6.40;99.90
27026;DHT22;14565;48.626;8.978;2022-09-23T06:12:10;6.60;99.90
27026;DHT22;14565;48.626;8.978;2022-09-23T06:14:38;6.60;99.90
27026;DHT22;14565;48.626;8.978;2022-09-23T06:17:04;6.70;99.90
27026;DHT22;14565;48.626;8.978;2022-09-23T06:19:30;6.90;99.90
27026;DHT22;14565;48.626;8.978;2022-09-23T06:21:55;6.90;99.90
27026;DHT22;14565;48.626;8.978;2022-09-23T06:24:21;7.00;99.90
27026;DHT22;14565;48.626;8.978;2022-09-23T06:26:47;7.20;99.90
27026;DHT22;14565;48.626;8.978;2022-09-23T06:29:12;7.40;99.90
27026;DHT22;14565;48.626;8.978;2022-09-23T06:31:39;7.50;99.90
27026;DHT22;14565;48.626;8.978;2022-09-23T06:34:08;7.60;99.90
27026;DHT22;14565;48.626;8.978;2022-09-23T06:36:34;7.80;99.90
27026;DHT22;14565;48.626;8.978;2022-09-23T06:39:00;7.90;99.90
27026;DHT22;14565;48.626;8.978;2022-09-23T06:41:26;7.90;99.90
27026;DHT22;14565;48.626;8.978;2022-09-23T06:43:52;8.10;99.90
27026;DHT22;14565;48.626;8.978;2022-09-23T06:46:18;8.30;99.90
27026;DHT22;14565;48.626;8.978;2022-09-23T06:48:44;8.40;99.90
27026;DHT22;14565;48.626;8.978;2022-09-23T06:51:12;8.50;99.90
27026;DHT22;14565;48.626;8.978;2022-09-23T06:53:45;8.70;99.90
27026;DHT22;14565;48.626;8.978;2022-09-23T06:56:10;8.70;99.90
27026;DHT22;14565;48.626;8.978;2022-09-23T06:58:36;8.90;99.90
27026;DHT22;14565;48.626;8.978;2022-09-23T07:03:32;9.30;99.90
27026;DHT22;14565;48.626;8.978;2022-09-23T07:05:58;9.70;99.90
27026;DHT22;14565;48.626;8.978;2022-09-23T07:08:26;9.90;99.90
27026;DHT22;14565;48.626;8.978;2022-09-23T07:10:53;10.30;99.90
27026;DHT22;14565;48.626;8.978;2022-09-23T07:13:19;10.30;99.90
27026;DHT22;14565;48.626;8.978;2022-09-23T07:15:50;10.40;99.90
27026;DHT22;14565;48.626;8.978;2022-09-23T07:18:17;10.90;99.90
27026;DHT22;14565;48.626;8.978;2022-09-23T07:20:42;11.20;99.90
27026;DHT22;14565;48.626;8.978;2022-09-23T07:23:08;11.70;99.90
27026;DHT22;14565;48.626;8.978;2022-09-23T07:25:34;11.60;99.90
27026;DHT22;14565;48.626;8.978;2022-09-23T07:27:59;11.90;99.90
27026;DHT22;14565;48.626;8.978;2022-09-23T07:30:25;11.90;99.90
27026;DHT22;14565;48.626;8.978;2022-09-23T07:32:51;11.70;99.90
27026;DHT22;14565;48.626;8.978;2022-09-23T07:35:18;11.80;99.90
27026;DHT22;14565;48.626;8.978;2022-09-23T07:37:44;12.10;99.90
27026;DHT22;14565;48.626;8.978;2022-09-23T07:40:10;12.10;99.90
27026;DHT22;14565;48.626;8.978;2022-09-23T07:42:36;12.40;99.90
27026;DHT22;14565;48.626;8.978;2022-09-23T07:45:03;12.70;99.90
27026;DHT22;14565;48.626;8.978;2022-09-23T07:47:31;12.50;99.90
27026;DHT22;14565;48.626;8.978;2022-09-23T07:49:56;12.80;99.90
27026;DHT22;14565;48.626;8.978;2022-09-23T07:52:22;12.70;99.90
27026;DHT22;14565;48.626;8.978;2022-09-23T07:54:48;13.20;99.90
27026;DHT22;14565;48.626;8.978;2022-09-23T07:57:13;13.40;99.90
27026;DHT22;14565;48.626;8.978;2022-09-23T07:59:39;13.60;99.90
27026;DHT22;14565;48.626;8.978;2022-09-23T08:02:05;13.70;99.90
27026;DHT22;14565;48.626;8.978;2022-09-23T08:04:31;13.00;99.90
27026;DHT22;14565;48.626;8.978;2022-09-23T08:07:01;12.60;99.90
27026;DHT22;14565;48.626;8.978;2022-09-23T08:09:33;12.60;99.90
27026;DHT22;14565;48.626;8.978;2022-09-23T08:12:00;13.20;99.90
27026;DHT22;14565;48.626;8.978;2022-09-23T08:14:25;12.70;99.90
27026;DHT22;14565;48.626;8.978;2022-09-23T08:16:51;12.70;99.90
27026;DHT22;14565;48.626;8.978;2022-09-23T08:19:18;12.90;99.90
27026;DHT22;14565;48.626;8.978;2022-09-23T08:21:45;12.80;99.90
27026;DHT22;14565;48.626;8.978;2022-09-23T08:24:21;13.30;99.90
27026;DHT22;14565;48.626;8.978;2022-09-23T08:26:49;13.40;99.90
27026;DHT22;14565;48.626;8.978;2022-09-23T08:29:20;14.00;99.90
27026;DHT22;14565;48.626;8.978;2022-09-23T08:31:47;13.90;99.90
27026;DHT22;14565;48.626;8.978;2022-09-23T08:34:15;14.10;99.90
27026;DHT22;14565;48.626;8.978;2022-09-23T08:36:41;14.00;99.90
27026;DHT22;14565;48.626;8.978;2022-09-23T08:39:07;13.50;99.90
27026;DHT22;14565;48.626;8.978;2022-09-23T08:44:20;13.20;99.90
27026;DHT22;14565;48.626;8.978;2022-09-23T08:49:44;13.50;99.90
27026;DHT22;14565;48.626;8.978;2022-09-23T08:55:08;14.00;99.90
27026;DHT22;14565;48.626;8.978;2022-09-23T09:00:39;13.70;99.90
27026;DHT22;14565;48.626;8.978;2022-09-23T09:03:23;13.80;99.90
27026;DHT22;14565;48.626;8.978;2022-09-23T09:05:51;14.00;99.90
27026;DHT22;14565;48.626;8.978;2022-09-23T09:08:31;14.40;99.90
27026;DHT22;14565;48.626;8.978;2022-09-23T09:10:57;14.40;99.90
27026;DHT22;14565;48.626;8.978;2022-09-23T09:13:36;14.60;99.90
27026;DHT22;14565;48.626;8.978;2022-09-23T09:16:25;14.50;99.90
27026;DHT22;14565;48.626;8.978;2022-09-23T09:18:55;14.60;99.90
27026;DHT22;14565;48.626;8.978;2022-09-23T09:21:33;14.50;99.90
27026;DHT22;14565;48.626;8.978;2022-09-23T09:24:16;14.80;99.90
27026;DHT22;14565;48.626;8.978;2022-09-23T09:26:42;15.00;99.90
27026;DHT22;14565;48.626;8.978;2022-09-23T09:29:13;15.20;99.90
27026;DHT22;14565;48.626;8.978;2022-09-23T09:31:47;15.40;99.90
27026;DHT22;14565;48.626;8.978;2022-09-23T09:37:06;15.70;99.90
27026;DHT22;14565;48.626;8.978;2022-09-23T09:39:34;15.70;99.90
27026;DHT22;14565;48.626;8.978;2022-09-23T09:42:01;16.00;99.90
27026;DHT22;14565;48.626;8.978;2022-09-23T09:44:38;16.40;99.90
27026;DHT22;14565;48.626;8.978;2022-09-23T09:50:07;16.50;99.90
27026;DHT22;14565;48.626;8.978;2022-09-23T09:52:33;16.70;99.90
27026;DHT22;14565;48.626;8.978;2022-09-23T09:57:56;17.00;99.90
27026;DHT22;14565;48.626;8.978;2022-09-23T10:03:00;17.10;99.90
27026;DHT22;14565;48.626;8.978;2022-09-23T10:05:33;17.00;99.90
27026;DHT22;14565;48.626;8.978;2022-09-23T10:11:05;17.40;99.90
27026;DHT22;14565;48.626;8.978;2022-09-23T10:13:35;17.10;99.90
27026;DHT22;14565;48.626;8.978;2022-09-23T10:16:02;17.20;99.90
27026;DHT22;14565;48.626;8.978;2022-09-23T10:18:47;17.20;99.90
27026;DHT22;14565;48.626;8.978;2022-09-23T10:21:16;17.50;99.90
27026;DHT22;14565;48.626;8.978;2022-09-23T10:23:51;17.70;99.90
27026;DHT22;14565;48.626;8.978;2022-09-23T10:26:31;17.40;99.90
27026;DHT22;14565;48.626;8.978;2022-09-23T10:29:09;17.50;99.90
27026;DHT22;14565;48.626;8.978;2022-09-23T10:31:44;17.50;99.90
27026;DHT22;14565;48.626;8.978;2022-09-23T10:34:30;17.50;99.90
27026;DHT22;14565;48.626;8.978;2022-09-23T10:37:25;17.60;99.90
27026;DHT22;14565;48.626;8.978;2022-09-23T10:39:48;17.40;99.90
27026;DHT22;14565;48.626;8.978;2022-09-23T10:42:49;17.40;99.90
27026;DHT22;14565;48.626;8.978;2022-09-23T10:45:39;17.40;99.90
27026;DHT22;14565;48.626;8.978;2022-09-23T10:52:07;17.60;99.90
27026;DHT22;14565;48.626;8.978;2022-09-23T11:06:04;17.80;99.90
27026;DHT22;14565;48.626;8.978;2022-09-23T11:11:19;17.80;99.90
27026;DHT22;14565;48.626;8.978;2022-09-23T11:14:13;17.80;99.90
27026;DHT22;14565;48.626;8.978;2022-09-23T11:23:13;17.70;99.90
27026;DHT22;14565;48.626;8.978;2022-09-23T11:26:31;17.70;99.90
27026;DHT22;14565;48.626;8.978;2022-09-23T11:29:42;17.60;99.90
27026;DHT22;14565;48.626;8.978;2022-09-23T11:32:18;17.70;99.90
27026;DHT22;14565;48.626;8.978;2022-09-23T11:37:42;17.90;99.90
27026;DHT22;14565;48.626;8.978;2022-09-23T11:40:20;18.00;99.90
27026;DHT22;14565;48.626;8.978;2022-09-23T11:42:55;17.80;99.90
27026;DHT22;14565;48.626;8.978;2022-09-23T11:45:31;17.80;99.90
27026;DHT22;14565;48.626;8.978;2022-09-23T11:48:10;17.50;99.90
27026;DHT22;14565;48.626;8.978;2022-09-23T11:50:41;17.80;99.90
27026;DHT22;14565;48.626;8.978;2022-09-23T11:53:28;18.00;99.90
27026;DHT22;14565;48.626;8.978;2022-09-23T11:56:02;18.20;99.90
27026;DHT22;14565;48.626;8.978;2022-09-23T11:58:37;18.30;99.90
27026;DHT22;14565;48.626;8.978;2022-09-23T12:01:12;18.30;99.90
27026;DHT22;14565;48.626;8.978;2022-09-23T12:04:11;18.20;99.90
27026;DHT22;14565;48.626;8.978;2022-09-23T12:06:44;18.70;99.90
27026;DHT22;14565;48.626;8.978;2022-09-23T12:09:20;18.90;99.90
27026;DHT22;14565;48.626;8.978;2022-09-23T12:11:54;19.60;99.90
27026;DHT22;14565;48.626;8.978;2022-09-23T12:14:48;19.60;99.90
27026;DHT22;14565;48.626;8.978;2022-09-23T12:17:43;19.50;99.90
27026;DHT22;14565;48.626;8.978;2022-09-23T12:28:19;19.20;99.90
27026;DHT22;14565;48.626;8.978;2022-09-23T12:30:49;19.20;99.90
27026;DHT22;14565;48.626;8.978;2022-09-23T12:35:43;19.20;99.90
27026;DHT22;14565;48.626;8.978;2022-09-23T12:38:32;19.30;99.90
27026;DHT22;14565;48.626;8.978;2022-09-23T12:40:58;19.30;99.90
27026;DHT22;14565;48.626;8.978;2022-09-23T12:43:33;19.20;99.90
27026;DHT22;14565;48.626;8.978;2022-09-23T12:46:24;19.00;99.90
27026;DHT22;14565;48.626;8.978;2022-09-23T12:51:23;19.40;99.90
27026;DHT22;14565;48.626;8.978;2022-09-23T12:53:58;19.30;99.90
27026;DHT22;14565;48.626;8.978;2022-09-23T12:59:51;19.40;99.90
27026;DHT22;14565;48.626;8.978;2022-09-23T13:02:28;19.10;99.90
27026;DHT22;14565;48.626;8.978;2022-09-23T13:05:40;19.20;99.90
27026;DHT22;14565;48.626;8.978;2022-09-23T13:08:23;19.20;99.90
27026;DHT22;14565;48.626;8.978;2022-09-23T13:11:01;19.40;99.90
27026;DHT22;14565;48.626;8.978;2022-09-23T13:13:34;19.20;99.90
27026;DHT22;14565;48.626;8.978;2022-09-23T13:16:28;19.20;99.90
27026;DHT22;14565;48.626;8.978;2022-09-23T13:32:03;19.20;99.90
27026;DHT22;14565;48.626;8.978;2022-09-23T13:34:32;19.60;99.90
27026;DHT22;14565;48.626;8.978;2022-09-23T13:37:12;20.00;99.20
27026;DHT22;14565;48.626;8.978;2022-09-23T13:39:41;19.50;99.70
27026;DHT22;14565;48.626;8.978;2022-09-23T13:42:12;19.70;99.90
27026;DHT22;14565;48.626;8.978;2022-09-23T13:44:42;19.60;99.90
27026;DHT22;14565;48.626;8.978;2022-09-23T13:47:11;19.60;99.90
27026;DHT22;14565;48.626;8.978;2022-09-23T13:49:38;19.20;99.90
27026;DHT22;14565;48.626;8.978;2022-09-23T13:52:25;19.30;99.90
27026;DHT22;14565;48.626;8.978;2022-09-23T13:54:52;19.20;99.90
27026;DHT22;14565;48.626;8.978;2022-09-23T13:57:24;19.30;99.90
27026;DHT22;14565;48.626;8.978;2022-09-23T13:59:50;19.20;99.90
27026;DHT22;14565;48.626;8.978;2022-09-23T14:02:16;19.40;99.90
27026;DHT22;14565;48.626;8.978;2022-09-23T14:04:43;19.40;99.90
27026;DHT22;14565;48.626;8.978;2022-09-23T14:07:15;19.40;99.90
27026;DHT22;14565;48.626;8.978;2022-09-23T14:09:47;19.00;99.90
27026;DHT22;14565;48.626;8.978;2022-09-23T14:12:14;18.50;99.90
27026;DHT22;14565;48.626;8.978;2022-09-23T14:14:46;18.40;99.90
27026;DHT22;14565;48.626;8.978;2022-09-23T14:17:16;18.40;99.90
27026;DHT22;14565;48.626;8.978;2022-09-23T14:19:43;18.30;99.90
27026;DHT22;14565;48.626;8.978;2022-09-23T14:22:24;18.40;99.90
27026;DHT22;14565;48.626;8.978;2022-09-23T14:24:50;18.40;99.90
27026;DHT22;14565;48.626;8.978;2022-09-23T14:27:27;18.40;99.90
27026;DHT22;14565;48.626;8.978;2022-09-23T14:29:54;18.40;99.90
27026;DHT22;14565;48.626;8.978;2022-09-23T14:32:22;18.40;99.90
27026;DHT22;14565;48.626;8.978;2022-09-23T14:40:28;18.30;99.90
27026;DHT22;14565;48.626;8.978;2022-09-23T14:45:25;18.10;99.90
27026;DHT22;14565;48.626;8.978;2022-09-23T14:47:59;18.10;99.90
27026;DHT22;14565;48.626;8.978;2022-09-23T14:50:28;18.00;99.90
27026;DHT22;14565;48.626;8.978;2022-09-23T14:55:46;18.10;99.90
27026;DHT22;14565;48.626;8.978;2022-09-23T14:58:17;18.10;99.90
27026;DHT22;14565;48.626;8.978;2022-09-23T15:00:58;18.10;99.90
27026;DHT22;14565;48.626;8.978;2022-09-23T15:03:25;17.90;99.90
27026;DHT22;14565;48.626;8.978;2022-09-23T15:05:59;17.80;99.90
27026;DHT22;14565;48.626;8.978;2022-09-23T15:08:27;17.90;99.90
27026;DHT22;14565;48.626;8.978;2022-09-23T15:10:53;18.00;99.90
27026;DHT22;14565;48.626;8.978;2022-09-23T15:13:22;17.80;99.90
27026;DHT22;14565;48.626;8.978;2022-09-23T15:15:53;17.90;99.90
27026;DHT22;14565;48.626;8.978;2022-09-23T15:18:25;17.80;99.90
27026;DHT22;14565;48.626;8.978;2022-09-23T15:21:13;17.60;99.90
27026;DHT22;14565;48.626;8.978;2022-09-23T15:26:55;17.70;99.90
27026;DHT22;14565;48.626;8.978;2022-09-23T15:28:57;17.50;99.90
27026;DHT22;14565;48.626;8.978;2022-09-23T15:31:24;17.40;99.90
27026;DHT22;14565;48.626;8.978;2022-09-23T15:33:50;17.50;99.90
27026;DHT22;14565;48.626;8.978;2022-09-23T15:36:23;17.40;99.90
27026;DHT22;14565;48.626;8.978;2022-09-23T15:38:50;17.30;99.90
27026;DHT22;14565;48.626;8.978;2022-09-23T15:41:16;17.20;99.90
27026;DHT22;14565;48.626;8.978;2022-09-23T15:43:42;17.10;99.90
27026;DHT22;14565;48.626;8.978;2022-09-23T15:46:13;17.10;99.90
27026;DHT22;14565;48.626;8.978;2022-09-23T15:48:43;17.10;99.90
27026;DHT22;14565;48.626;8.978;2022-09-23T15:51:15;16.90;99.90
27026;DHT22;14565;48.626;8.978;2022-09-23T15:53:41;17.00;99.90
27026;DHT22;14565;48.626;8.978;2022-09-23T15:56:06;17.10;99.90
27026;DHT22;14565;48.626;8.978;2022-09-23T15:58:32;17.00;99.90
27026;DHT22;14565;48.626;8.978;2022-09-23T16:00:58;16.80;99.90
27026;DHT22;14565;48.626;8.978;2022-09-23T16:03:26;16.60;99.90
27026;DHT22;14565;48.626;8.978;2022-09-23T16:05:57;16.70;99.90
27026;DHT22;14565;48.626;8.978;2022-09-23T16:08:24;16.60;99.90
27026;DHT22;14565;48.626;8.978;2022-09-23T16:10:51;16.50;99.90
27026;DHT22;14565;48.626;8.978;2022-09-23T16:13:17;16.40;99.90
27026;DHT22;14565;48.626;8.978;2022-09-23T16:15:43;16.20;99.90
27026;DHT22;14565;48.626;8.978;2022-09-23T16:18:10;16.30;99.90
27026;DHT22;14565;48.626;8.978;2022-09-23T16:20:38;16.20;99.90
27026;DHT22;14565;48.626;8.978;2022-09-23T16:23:27;16.30;99.90
27026;DHT22;14565;48.626;8.978;2022-09-23T16:28:33;16.20;99.90
27026;DHT22;14565;48.626;8.978;2022-09-23T16:30:58;16.30;99.90
27026;DHT22;14565;48.626;8.978;2022-09-23T16:33:24;16.40;99.90
27026;DHT22;14565;48.626;8.978;2022-09-23T16:35:50;16.10;99.90
27026;DHT22;14565;48.626;8.978;2022-09-23T16:38:16;16.10;99.90
27026;DHT22;14565;48.626;8.978;2022-09-23T16:40:42;15.90;99.90
27026;DHT22;14565;48.626;8.978;2022-09-23T16:43:07;15.70;99.90
27026;DHT22;14565;48.626;8.978;2022-09-23T16:45:33;15.60;99.90
27026;DHT22;14565;48.626;8.978;2022-09-23T16:47:59;15.60;99.90
27026;DHT22;14565;48.626;8.978;2022-09-23T16:50:24;15.60;99.90
27026;DHT22;14565;48.626;8.978;2022-09-23T16:52:53;15.50;99.90
27026;DHT22;14565;48.626;8.978;2022-09-23T16:55:22;15.40;99.90
27026;DHT22;14565;48.626;8.978;2022-09-23T16:57:49;15.50;99.90
27026;DHT22;14565;48.626;8.978;2022-09-23T17:00:15;15.40;99.90
27026;DHT22;14565;48.626;8.978;2022-09-23T17:03:00;15.20;99.90
27026;DHT22;14565;48.626;8.978;2022-09-23T17:05:44;15.10;99.90
27026;DHT22;14565;48.626;8.978;2022-09-23T17:08:11;15.00;99.90
27026;DHT22;14565;48.626;8.978;2022-09-23T17:10:39;14.90;99.90
27026;DHT22;14565;48.626;8.978;2022-09-23T17:13:06;14.70;99.90
27026;DHT22;14565;48.626;8.978;2022-09-23T17:15:35;14.70;99.90
27026;DHT22;14565;48.626;8.978;2022-09-23T17:18:02;14.60;99.90
27026;DHT22;14565;48.626;8.978;2022-09-23T17:20:31;14.50;99.90
27026;DHT22;14565;48.626;8.978;2022-09-23T17:22:57;14.40;99.90
27026;DHT22;14565;48.626;8.978;2022-09-23T17:25:23;14.30;99.90
27026;DHT22;14565;48.626;8.978;2022-09-23T17:27:48;14.10;99.90
27026;DHT22;14565;48.626;8.978;2022-09-23T17:30:14;14.00;99.90
27026;DHT22;14565;48.626;8.978;2022-09-23T17:32:40;13.90;99.90
27026;DHT22;14565;48.626;8.978;2022-09-23T17:35:07;13.80;99.90
27026;DHT22;14565;48.626;8.978;2022-09-23T17:37:35;13.70;99.90
27026;DHT22;14565;48.626;8.978;2022-09-23T17:40:01;13.70;99.90
27026;DHT22;14565;48.626;8.978;2022-09-23T17:42:27;13.70;99.90
27026;DHT22;14565;48.626;8.978;2022-09-23T17:44:53;13.60;99.90
27026;DHT22;14565;48.626;8.978;2022-09-23T17:47:24;13.40;99.90
27026;DHT22;14565;48.626;8.978;2022-09-23T17:49:50;13.40;99.90
27026;DHT22;14565;48.626;8.978;2022-09-23T17:52:17;13.30;99.90
27026;DHT22;14565;48.626;8.978;2022-09-23T17:54:43;13.30;99.90
27026;DHT22;14565;48.626;8.978;2022-09-23T17:57:10;13.20;99.90
27026;DHT22;14565;48.626;8.978;2022-09-23T17:59:36;13.10;99.90
27026;DHT22;14565;48.626;8.978;2022-09-23T18:02:01;13.10;99.90
27026;DHT22;14565;48.626;8.978;2022-09-23T18:04:27;13.10;99.90
27026;DHT22;14565;48.626;8.978;2022-09-23T18:06:53;13.00;99.90
27026;DHT22;14565;48.626;8.978;2022-09-23T18:09:18;12.90;99.90
27026;DHT22;14565;48.626;8.978;2022-09-23T18:11:45;12.80;99.90
27026;DHT22;14565;48.626;8.978;2022-09-23T18:14:13;12.70;99.90
27026;DHT22;14565;48.626;8.978;2022-09-23T18:16:41;12.70;99.90
27026;DHT22;14565;48.626;8.978;2022-09-23T18:19:11;12.80;99.90
27026;DHT22;14565;48.626;8.978;2022-09-23T18:21:39;12.70;99.90
27026;DHT22;14565;48.626;8.978;2022-09-23T18:24:06;12.70;99.90
27026;DHT22;14565;48.626;8.978;2022-09-23T18:26:32;12.60;99.90